KCDS/CDS METAR and TAF weather

Enter ICAO airport designator
Station Type Date Time Source
KCDS METAR 2019/08/17 10:53 UTC NOAA

KCDS 171053Z AUTO 00000KT 10SM CLR 24/18 A2985 RMK AO2 SLP074 T02440183


Station Type Date Time Source
KCDS Decoded METAR 2019/08/17 10:53 UTC NOAA

Station name not available
Aug 17, 2019 - 06:53 AM EDT / 2019.08.17 1053 UTC
Wind: Calm:0
Visibility: 10 mile(s):0
Sky conditions: clear
Temperature: 75.9 F (24.4 C)
Dew Point: 64.9 F (18.3 C)
Relative Humidity: 68%
Pressure (altimeter): 29.85 in. Hg (1010 hPa)
ob: KCDS 171053Z AUTO 00000KT 10SM CLR 24/18 A2985 RMK AO2 SLP074 T02440183
cycle: 11

Station Type Date Time Source
KCDS TAF 2019/08/17 12:22 UTC NOAA

TAF KCDS 171120Z 1712/1812 17009KT P6SM FEW250 WS005/19040KT
FM171400 20015KT P6SM FEW100
FM180200 16011KT P6SM SCT250

Example: see airport list